Tiempo atmosférico en la estación meteorológica de Ciudad Real, Ciudad Real (628 m.)

Fecha
DESCASC
Temp. máxima en grados centígrados (hora)
DESCASC
Temp. mínima en grados centígrados (hora)
DESCASC
Temp. media en grados centígrados
DESCASC
Racha de viento máxima en m/sg (hora)
DESCASC
Velocidad máxima media en intervalos de 10 minutos(hora)
DESCASC
Precipitaciones diarias en mm
DESCASC
Precipitaciones de 00:00 a 06:00 en mm
DESCASC
Precipitaciones de 06:00 a 12:00 en mm
DESCASC
Precipitaciones de 12:00 a 18:00 en mm
DESCASC
Precipitaciones de 18:00 a 24:00 en mm
DESCASC
10-12-2017 12.2 (16:20) 10.1 (02:20) 11.2 14.72 (23:20) 6.39 (23:59) 0 0 0 0 0
09-12-2017 14.1 (14:50) 6.7 (00:10) 10.4 6.39 (16:50) 3.61 (16:50) 0 0 0 0 0
08-12-2017 15 (14:00) -0.3 (08:40) 7.3 6.39 (16:40) 2.78 (15:00) 0 0 0 0 0
07-12-2017 10.6 (15:40) -3.9 (-00:0) 3.4 2.5 (12:10) 1.39 (12:00) 0 0 0 0 0
06-12-2017 10.1 (15:30) -4.2 (-00:0) 3 -- (--) -- (--) 0 0 0 0 0
05-12-2017 9.4 (14:30) -3.7 (-00:0) 2.8 5 (11:00) 3.61 (11:00) 0 0 0 0 0
04-12-2017 8.9 (14:40) -3.2 (-00:0) 2.8 7.5 (15:40) 4.17 (14:10) 0 0 0 0 0
03-12-2017 8.6 (14:10) -1.8 (-00:0) 3.4 7.22 (12:30) 3.33 (12:30) 0 0 0 0 0
02-12-2017 10 (14:10) -1.4 (-00:0) 4.3 7.78 (19:10) 3.89 (19:20) 0 0 0 0 0
01-12-2017 10.6 (15:40) 0.6 (00:00) 5.6 13.61 (17:30) 4.72 (17:30) 0.6 0 0 0.6 0
30-11-2017 8.6 (14:20) 2.1 (00:00) 5.4 11.11 (12:50) 4.44 (13:50) 0 0 0 0 0
29-11-2017 13.9 (13:10) 6.3 (00:00) 10.1 7.5 (20:50) 3.33 (20:50) 11.6 10.6 1 0 0
28-11-2017 12.1 (15:30) 6.8 (00:00) 9.5 3.89 (15:00) 2.22 (14:50) 11.4 0 1 6.4 4
27-11-2017 12.7 (15:30) -0.6 (-00:0) 6 3.61 (11:30) 1.94 (10:20) 0 0 0 0 0
26-11-2017 14 (14:20) 2.4 (00:00) 8.2 4.72 (10:00) 3.06 (10:00) 0 0 0 0 0
25-11-2017 15.7 (15:40) 7.2 (00:00) 11.4 5 (15:50) 2.22 (15:20) 0 0 0 0 0
24-11-2017 21.2 (14:20) 6.1 (00:00) 13.7 8.33 (14:40) 4.17 (14:40) 0 0 0 0 0
23-11-2017 21.3 (14:30) 6.6 (00:00) 13.9 7.22 (15:10) 3.61 (15:20) 0 0 0 0 0
22-11-2017 19.7 (14:50) 0.8 (00:00) 10.3 4.17 (21:10) 2.5 (21:10) 0 0 0 0 0
21-11-2017 19.3 (14:40) 0.9 (00:00) 10.1 2.78 (11:10) 1.39 (20:20) 0 0 0 0 0
20-11-2017 18.6 (14:40) 0.6 (00:00) 9.6 2.5 (16:10) 1.11 (15:40) 0 0 0 0 0
19-11-2017 17.3 (14:30) 1 (00:00) 9.1 3.61 (12:10) 1.94 (11:20) 0 0 0 0 0
18-11-2017 18 (15:20) 2.1 (00:00) 10 2.78 (17:10) 1.94 (05:50) 0 0 0 0 0
17-11-2017 19 (15:00) 1.2 (00:00) 10.1 2.78 (14:20) 1.67 (17:30) 0 0 0 0 0
16-11-2017 19.1 (14:40) 0.4 (00:00) 9.8 2.22 (13:30) 1.39 (14:50) 0 0 0 0 0
15-11-2017 16.2 (15:10) -0.2 (00:00) 8 4.17 (13:30) 1.67 (09:50) 0 0 0 0 0

Gráficas

Temp. máximas Temp. mínimas Temp. medias Precipitaciones Rachas de viento máximas Velocidades máximas media en intervalos de 10 minutos

Datos horarios

Fecha y hora oficial Temperatura (ºC) Velocidad del viento (km/h) Dirección del viento Racha (km/h) Dirección de racha Precipitación (mm) Presión (hPa) Tendencia (hPa) Humedad (%)
2017-12-14 23:00:00 10.2 11 Sudoeste 24 Sur 0 945.1 -1.5 99
2017-12-14 22:00:00 9.8 12 Sudoeste 28 Sudoeste 0.4 945.9 -0.9 98
2017-12-14 21:00:00 10.1 11 Sudoeste 29 Sudoeste 0.2 946.3 -0.9 97
2017-12-14 20:00:00 10.2 10 Sudoeste 18 Sur 0.4 946.6 -0.7 97
2017-12-14 19:00:00 10.6 8 Sudoeste 21 Sudoeste 0.2 946.8 -0.8 98
2017-12-14 18:00:00 10.8 8 Sudoeste 20 Oeste 0.2 947.2 -0.5 97
2017-12-14 17:00:00 10.9 11 Sudoeste 21 Oeste 0 947.3 -1.4 94
2017-12-14 16:00:00 10.8 7 Oeste 20 Sudoeste 0 947.6 -2.2 92
2017-12-14 15:00:00 11.1 15 Oeste 29 Sudoeste 0 947.7 -3.3 87
2017-12-14 14:00:00 11 12 Oeste 30 Sudoeste 0 948.7 -2.5 87
2017-12-14 13:00:00 11.2 12 Oeste 29 Sudoeste 0 949.8 -1.5 84
2017-12-14 12:00:00 9.2 10 Oeste 22 Oeste 0 951 0.3 92
2017-12-14 11:00:00 7.8 9 Sudoeste 17 Oeste 0 951.2 0.2 96
2017-12-14 10:00:00 7.4 6 Sudoeste 19 Sudoeste 0 951.3 0.3 96
2017-12-14 09:00:00 7.2 5 Sudoeste 18 Sudoeste 0 950.7 -0.3 89
2017-12-14 08:00:00 7 8 Oeste 18 Oeste 0 951 -0.6 89
2017-12-14 07:00:00 7 8 Oeste 19 Noroeste 0 951 -0.9 85
2017-12-14 06:00:00 6.3 9 Sudoeste 19 Noroeste 0 951 -1.3 85
2017-12-14 05:00:00 5.4 5 Oeste 15 Noroeste 0 951.6 -0.8 82
2017-12-14 04:00:00 5.4 5 Sudoeste 18 Oeste 0 951.9 -0.9 79
2017-12-14 03:00:00 5.8 9 Oeste 17 Sudoeste 0 952.3 -1 77
2017-12-14 02:00:00 6.1 7 Oeste 18 Oeste 0 952.4 -1 75
2017-12-14 01:00:00 6.5 7 Oeste 15 Oeste 0 952.8 -1 71
2017-12-14 00:00:00 6.4 5 Sur 13 Oeste 0 953.3 -0.1 70
2017-12-13 23:00:00 6.5 6 Oeste 14 Sudoeste 0 953.4 -0.2 69
2017-12-13 22:00:00 6.6 4 Sudoeste 12 Sudoeste 0 953.8 0.6 66
2017-12-13 21:00:00 6.7 7 Sudoeste 13 Oeste 0 953.4 0.3 66
2017-12-13 20:00:00 7.1 8 Oeste 14 Oeste 0 953.6 0.7 65
2017-12-13 19:00:00 8.2 8 Oeste 14 Sudoeste 0 953.2 0.2 61
2017-12-13 18:00:00 9.2 5 Oeste 18 Sudoeste 0 953.1 0.1 55
2017-12-13 17:00:00 10.4 10 Sudoeste 22 Oeste 0 952.9 -1.1 49
2017-12-13 16:00:00 10.9 9 Oeste 24 Oeste 0 953 -1.2 49
2017-12-13 15:00:00 11.6 9 Oeste 23 Oeste 0 953 -2.6 46
2017-12-13 14:00:00 11.1 11 Oeste 22 Sudoeste 0 954 -1.7 46
2017-12-13 13:00:00 10.6 6 Sudoeste 14 Oeste 0 954.2 -0.8 53
2017-12-13 12:00:00 8 5 Oeste 11 Oeste 0 955.6 2.1 62
2017-12-13 11:00:00 4.4 4 Oeste 7 Oeste 0 955.7 1.9 76
2017-12-13 10:00:00 1.1 2 Nordeste 6 Este 0 955 1.6 92
2017-12-13 09:00:00 -0.7 3 Sudeste 9 Sur 0 953.5 0.9 97
2017-12-13 08:00:00 -1.4 3 Sudeste 8 Oeste 0 953.8 1.1 97
2017-12-13 07:00:00 -1.3 3 Noroeste 6 Noroeste 0 953.4 1 97
2017-12-13 06:00:00 -1.3 3 Sudeste 5 Noroeste 0 952.6 0.4 97
2017-12-13 05:00:00 -1.2 3 Norte 5 Norte 0 952.7 0.5 96
2017-12-13 04:00:00 -0.8 0 Calma 3 Este 0 952.4 0.8 95
2017-12-13 03:00:00 -0.4 2 Sur 5 Sudeste 0 952.2 1.3 94
2017-12-13 02:00:00 0.2 3 Este 5 Este 0 952.2 1.5 90
2017-12-13 01:00:00 0.8 3 Sudeste 8 Sur 0 951.6 1.6 90
2017-12-13 00:00:00 1 2 Sudeste 7 Noroeste 0 950.9 1.3 91
2017-12-12 23:00:00 1.5 0 Calma 4 Noroeste 0 950.7 1.9 88
2017-12-12 22:00:00 2.4 3 Oeste 6 Sudoeste 0 950 2.4 87
2017-12-12 21:00:00 3.2 0 Calma 5 Norte 0 949.6 2.5 79
2017-12-12 20:00:00 4.9 2 Nordeste 7 Noroeste 0 948.8 2.3 70
2017-12-12 19:00:00 6.4 3 Oeste 8 Sudoeste 0 947.6 1.6 59
2017-12-12 18:00:00 7.5 4 Sudoeste 11 Sudoeste 0 947.1 1.8 53
2017-12-12 17:00:00 8.6 5 Noroeste 12 Noroeste 0 946.5 1.6 49
2017-12-12 16:00:00 9.1 4 Noroeste 14 Noroeste 0 946 1.3 43
2017-12-12 15:00:00 9.8 3 Oeste 10 Este 0 945.3 0.3 44
2017-12-12 14:00:00 9.4 7 Este 11 Este 0 944.9 0.5 46
2017-12-12 13:00:00 8.8 4 Noroeste 12 Noroeste 0 944.7 0.9 48
2017-12-12 12:00:00 7.1 5 Noroeste 12 Noroeste 0 945 2.4 52
2017-12-12 11:00:00 5.8 3 Sudoeste 11 Sudeste 0 944.4 2.6 65
2017-12-12 10:00:00 4.2 3 Noroeste 8 Noroeste 0 943.8 3.1 69
2017-12-12 09:00:00 1.2 2 Noroeste 11 Noroeste 0 942.6 2.8 82
2017-12-12 08:00:00 2.1 4 Nordeste 11 Noroeste 0 941.8 3.1 78
2017-12-12 07:00:00 2.4 6 Noroeste 11 Noroeste 0 940.7 3.2 74
2017-12-12 06:00:00 2.8 7 Noroeste 14 Noroeste 0 939.8 3.2 72
2017-12-12 05:00:00 2.6 5 Noroeste 12 Noroeste 0 938.7 2.6 83
2017-12-12 04:00:00 3.7 8 Nordeste 17 Nordeste 0 937.5 2.1 78
2017-12-12 03:00:00 4.6 3 Norte 9 Norte 0 936.6 1.9 88
2017-12-12 02:00:00 4.5 6 Oeste 9 Oeste 0 936.1 2.8 93
2017-12-12 01:00:00 4.7 2 Noroeste 9 Noroeste 0.2 935.4 3.1 94
2017-12-12 00:00:00 4.9 3 Oeste 32 Noroeste 1.4 934.7 3.3 90
2017-12-11 23:00:00 6.8 10 Oeste 21 Sudoeste 0 933.3 2.6 89
2017-12-11 22:00:00 7.1 8 Sudoeste 26 Sudoeste 0 932.3 2.3 88
2017-12-11 21:00:00 7.4 9 Sudoeste 26 Oeste 0 931.4 1.9 84
2017-12-11 20:00:00 7 5 Sudoeste 17 Sudoeste 0 930.7 1.7 80
2017-12-11 19:00:00 7.5 10 Sudoeste 21 Sudoeste 0 930 2.2 76
2017-12-11 18:00:00 7.9 10 Sudoeste 22 Sudoeste 0 929.5 2 71
2017-12-11 17:00:00 8.4 15 Oeste 34 Sudoeste 0 929 1.4 68
2017-12-11 16:00:00 8.9 19 Oeste 45 Oeste 0 927.8 0.4 68
2017-12-11 15:00:00 8.7 12 Oeste 47 Sudoeste 0 927.5 -0.2 70
2017-12-11 14:00:00 8.7 9 Oeste 47 Noroeste 0 927.6 0 77
2017-12-11 13:00:00 7.9 16 Oeste 39 Sudoeste 0 927.4 0.3 78
2017-12-11 12:00:00 7.2 16 Oeste 39 Oeste 0 927.7 2.1 86
2017-12-11 11:00:00 6.3 20 Sudoeste 41 Sudoeste 0.2 927.6 2.5 96
2017-12-11 10:00:00 5.5 16 Sudoeste 30 Oeste 0 927.1 2.4 97
2017-12-11 09:00:00 5.1 13 Oeste 35 Oeste 1.2 925.6 1.5 95
2017-12-11 08:00:00 5.4 17 Oeste 38 Sudoeste 3.8 925.1 3.1 94
2017-12-11 07:00:00 6.3 16 Noroeste 47 Noroeste 3 924.7 1.1 91
2017-12-11 06:00:00 7.6 24 Noroeste 58 Sudoeste 3.4 924.1 -1.5 89
2017-12-11 05:00:00 11.2 22 Sudoeste 61 Sudoeste 2.8 922 -5.6 93
2017-12-11 04:00:00 11 21 Sudoeste 50 Sur 1.8 923.6 -5.7 91
2017-12-11 03:00:00 11.1 21 Sudoeste 48 Sudoeste 1.6 925.6 -5.3 91
2017-12-11 02:00:00 11.8 20 Sudoeste 57 Sudoeste 0.4 927.6 -5 85
2017-12-11 01:00:00 12 22 Sudoeste 51 Sudoeste 0 929.3 -4.6 81
2017-12-11 00:00:00 11.9 23 Sudoeste 53 Sudoeste 0 930.9 -5.1 80
2017-12-10 23:00:00 11.9 19 Sudoeste 46 Sudoeste 0 932.6 -4.9 78
2017-12-10 22:00:00 11.7 14 Sudoeste 38 Sudoeste 0 933.9 -4.6 78
2017-12-10 21:00:00 11.4 13 Sur 29 Sur 0 936 -3.4 81
2017-12-10 20:00:00 11.4 14 Sudoeste 37 Sudoeste 0 937.5 -2.8 83
2017-12-10 19:00:00 11 19 Sudoeste 43 Sudoeste 0 938.5 -3.3 89
2017-12-10 18:00:00 11.2 18 Sudoeste 41 Sudoeste 0 939.4 -3.6 90
2017-12-10 17:00:00 11.6 15 Sudoeste 36 Oeste 0 940.3 -4.6 84
2017-12-10 16:00:00 12 17 Sudoeste 37 Sudoeste 0 941.8 -3.9 78
2017-12-10 15:00:00 11.6 14 Sudoeste 36 Sudoeste 0 943 -3.4 81
2017-12-10 14:00:00 11.3 14 Sudoeste 35 Sudoeste 0 944.9 -2.6 86
2017-12-10 13:00:00 11.8 17 Sudoeste 43 Oeste 0 945.7 -2 75
2017-12-10 12:00:00 11.6 16 Sudoeste 34 Sudoeste 0 946.4 -1.8 78
2017-12-10 11:00:00 11.2 14 Sudoeste 27 Sudoeste 0 947.5 -1 80
2017-12-10 10:00:00 10.8 13 Sudoeste 33 Sudoeste 0 947.7 -1.1 83
2017-12-10 09:00:00 10.2 14 Oeste 27 Oeste 0 948.2 -0.4 89
2017-12-10 08:00:00 10.3 8 Sudoeste 24 Oeste 0 948.5 -0.7 87
2017-12-10 07:00:00 10.6 9 Sudoeste 23 Sudoeste 0 948.8 -1 88
2017-12-10 06:00:00 10.7 10 Sudoeste 21 Sudoeste 0 948.6 -1.9 91
2017-12-10 05:00:00 10.7 10 Oeste 22 Oeste 0 949.2 -1.1 91
2017-12-10 04:00:00 10.5 8 Oeste 21 Oeste 0 949.8 -1.3 92
2017-12-10 03:00:00 10.3 10 Oeste 26 Sudoeste 0 950.5 -1.2 94
2017-12-10 02:00:00 10.2 9 Oeste 19 Oeste 0 950.3 -1.4 93
2017-12-10 01:00:00 10.8 9 Sudoeste 20 Sudoeste 0 951.1 -0.5 90
2017-12-10 00:00:00 11.5 8 Oeste 19 Sudoeste 0 951.7 0.2 87
2017-12-09 23:00:00 11.9 8 Sudoeste 19 Sudoeste 0 951.7 0.2 86
2017-12-09 22:00:00 11.5 7 Sudoeste 15 Sudoeste 0 951.6 0.2 89
2017-12-09 21:00:00 11.6 6 Sudoeste 15 Sudoeste 0 951.5 0.2 88
2017-12-09 20:00:00 11.7 9 Sudoeste 15 Sudoeste 0 951.5 -0.1 88
2017-12-09 19:00:00 11.8 10 Sudoeste 22 Sudoeste 0 951.4 0.2 87
2017-12-09 18:00:00 12.5 8 Sudoeste 21 Sudoeste 0 951.3 -0.1 81
2017-12-09 17:00:00 13.1 13 Oeste 23 Sudoeste 0 951.6 -0.4 76
2017-12-09 16:00:00 13.7 10 Oeste 22 Oeste 0 951.2 -1.2 75
2017-12-09 15:00:00 13.9 8 Oeste 20 Oeste 0 951.4 -1.8 75
2017-12-09 14:00:00 13.4 8 Oeste 20 Oeste 0 952 -0.9 79
2017-12-09 13:00:00 13.3 8 Oeste 21 Oeste 0 952.4 -0.5 79
2017-12-09 12:00:00 12.2 9 Sudoeste 15 Oeste 0 953.2 0.8 86
2017-12-09 11:00:00 11.8 6 Sudoeste 13 Oeste 0 952.9 0.9 88
2017-12-09 10:00:00 11 7 Sudoeste 14 Oeste 0 952.9 1.1 92
2017-12-09 09:00:00 10.4 7 Oeste 16 Sudoeste 0 952.4 0.7 94
2017-12-09 08:00:00 10.1 5 Oeste 10 Oeste 0 952 0 94
2017-12-09 07:00:00 9.9 5 Noroeste 11 Noroeste 0 951.8 -0.1 93
2017-12-09 06:00:00 10 3 Noroeste 9 Noroeste 0 951.7 -0.6 95
2017-12-09 05:00:00 10.1 3 Noroeste 16 Sudoeste 0 952 -0.4 95
2017-12-09 04:00:00 9.8 8 Oeste 15 Oeste 0 951.9 -0.5 94
2017-12-09 03:00:00 9.5 5 Sudoeste 13 Oeste 0 952.3 -0.9 88
2017-12-09 02:00:00 9.2 5 Oeste 17 Sudoeste 0 952.4 -0.7 81
2017-12-09 01:00:00 8.4 7 Oeste 17 Oeste 0 952.4 -1 77
2017-12-09 00:00:00 6.9 4 Sudoeste 14 Sudoeste 0 953.2 -0.3 70
2017-12-08 23:00:00 7.8 4 Sudoeste 16 Sudoeste 0 953.1 -0.3 65
2017-12-08 22:00:00 8.4 8 Sudoeste 15 Oeste 0 953.4 0.2 62
2017-12-08 21:00:00 9.1 9 Oeste 17 Oeste 0 953.5 0.2 61
2017-12-08 20:00:00 9.8 5 Sudoeste 15 Sudoeste 0 953.4 0.4 61
2017-12-08 19:00:00 10.7 9 Sudoeste 19 Sudoeste 0 953.2 0.2 57
2017-12-08 18:00:00 12.2 7 Oeste 16 Oeste 0 953.3 -0.1 52
2017-12-08 17:00:00 13.5 4 Oeste 23 Noroeste 0 953 -0.8 48
2017-12-08 16:00:00 14.1 6 Oeste 19 Oeste 0 953 -1.9 45
2017-12-08 15:00:00 14.4 10 Noroeste 19 Noroeste 0 953.4 -2 42
2017-12-08 14:00:00 14.8 7 Oeste 20 Oeste 0 953.8 -2.4 40
2017-12-08 13:00:00 13.7 8 Oeste 16 Noroeste 0 954.9 -0.9 39
2017-12-08 12:00:00 11.3 8 Oeste 15 Oeste 0 955.4 0.1 44
2017-12-08 11:00:00 7.3 5 Oeste 10 Sudoeste 0 956.2 0.8 58
2017-12-08 10:00:00 2.8 2 Norte 5 Noroeste 0 955.8 0.6 78
2017-12-08 09:00:00 -0.2 2 Sur 5 Nordeste 0 955.3 -0.2 88
2017-12-08 08:00:00 0.2 3 Norte 5 Norte 0 955.4 -0.2 87
2017-12-08 07:00:00 0.7 2 Sudoeste 7 Sur 0 955.2 -0.3 85
2017-12-08 06:00:00 1.4 3 Este 5 Este 0 955.5 0 81
2017-12-08 05:00:00 2.2 3 Sudeste 4 Nordeste 0 955.6 -0.6 78
2017-12-08 04:00:00 2.2 3 Oeste 8 Sudoeste 0 955.5 -1.1 78
2017-12-08 03:00:00 1.3 4 Sur 6 Sudoeste 0 955.5 -1.5 81
2017-12-08 02:00:00 0.9 2 Sudoeste 7 Sudoeste 0 956.2 -0.1 82
2017-12-08 01:00:00 1 3 Sudoeste 6 Sudoeste 0 956.6 0.2 83
2017-12-08 00:00:00 1.3 0 Calma 5 Noroeste 0 957 0.5 81
2017-12-07 23:00:00 2.2 3 Sudoeste 6 Sur 0 956.3 -0.1 78
2017-12-07 22:00:00 3.1 0 Calma 7 Sudoeste 0 956.4 0.3 75
2017-12-07 21:00:00 3.4 2 Sudoeste 5 Oeste 0 956.5 0.5 74
2017-12-07 20:00:00 4.8 3 Sudoeste 7 Sudoeste 0 956.4 0.6 66
2017-12-07 19:00:00 8.9 4 Sudoeste 5 Sudoeste 0 956.1 0 51
2017-12-07 18:00:00 7.9 3 Sudoeste 7 Sudoeste 0 956 -0.2 54
2017-12-07 17:00:00 9.7 3 Sudoeste 8 Sudoeste 0 955.8 -1.1 51
2017-12-07 16:00:00 10.6 3 Noroeste 8 Sudoeste 0 956.1 -1.5 49
2017-12-07 15:00:00 10.1 4 Noroeste 8 Noroeste 0 956.2 -2 44
2017-12-07 14:00:00 8.7 3 Norte 8 Nordeste 0 956.9 -1.9 50
2017-12-07 13:00:00 6.7 3 Este 9 Este 0 957.6 -0.9 58
2017-12-07 12:00:00 5 5 Este 8 Este 0 958.2 0.6 64
2017-12-07 11:00:00 1.8 0 Calma 5 Este 0 958.8 1.5 76
2017-12-07 10:00:00 -1.3 0 Calma 5 Nordeste 0 958.5 1.4 89
2017-12-07 09:00:00 -3.8 0 Calma 4 Nordeste 0 957.6 0.6 96
2017-12-07 08:00:00 -3.8 2 Noroeste 5 Nordeste 0 957.3 -0.1 96
2017-12-07 07:00:00 -3.6 2 Nordeste 5 Noroeste 0 957.1 -0.5 95
2017-12-07 06:00:00 -3.1 2 Norte 4 Norte 0 957 -0.6 94
2017-12-07 05:00:00 -3 2 Norte 5 Norte 0 957.4 -0.4 95
2017-12-07 04:00:00 -2.8 0 Calma 5 Sur 0 957.6 -0.4 92
2017-12-07 03:00:00 -2.4 3 Sur 4 Sudeste 0 957.6 -0.8 92
2017-12-07 02:00:00 -2.2 2 Sudeste 3 Sudeste 0 957.8 -0.5 91
2017-12-07 01:00:00 -1.7 0 Calma 3 Este 0 958 -0.2 89
2017-12-07 00:00:00 -1.1 3 Sudeste -- -- 0 958.4 0.3 88
2017-12-06 23:00:00 -0.6 0 Calma 4 Noroeste 0 958.3 0.5 85
2017-12-06 22:00:00 0.2 3 Norte 5 Norte 0 958.2 0.6 83
2017-12-06 21:00:00 1.2 4 Norte 6 Norte 0 958.1 0.5 79
2017-12-06 20:00:00 2.3 3 Nordeste 4 Este 0 957.8 0.5 72
2017-12-06 19:00:00 4.2 3 Este 5 Este 0 957.6 0.3 65
2017-12-06 18:00:00 6.7 3 Este 8 Nordeste 0 957.6 -0.1 56
2017-12-06 17:00:00 9 3 Nordeste 6 Nordeste 0 957.3 -1.1 47
2017-12-06 16:00:00 9.7 4 Este 8 Nordeste 0 957.3 -1.9 40
2017-12-06 15:00:00 9.4 4 Este 8 Sudeste 0 957.7 -2.2 45
2017-12-06 14:00:00 8.7 4 Este 9 Este 0 958.4 -2 49
2017-12-06 13:00:00 6.1 4 Nordeste 9 Este 0 959.2 -1 58
2017-12-06 12:00:00 4.1 4 Este 11 Este 0 959.9 -0.1 67
2017-12-06 11:00:00 1 2 Nordeste 9 Este 0 960.4 0.7 78
2017-12-06 10:00:00 -1.8 4 Este 6 Nordeste 0 960.2 0.7 85
2017-12-06 09:00:00 -4 2 Noroeste 5 Norte 0 960 0.6 93
2017-12-06 08:00:00 -3.9 4 Norte 5 Noroeste 0 959.7 0.1 93
2017-12-06 07:00:00 -4 3 Nordeste 6 Nordeste 0 959.5 -0.2 94
2017-12-06 06:00:00 -3.5 2 Nordeste 7 Norte 0 959.4 -0.3 92
2017-12-06 05:00:00 -3.2 2 Norte 6 Norte 0 959.6 -0.2 95
2017-12-06 04:00:00 -3 0 Calma 2 Nordeste 0 959.7 -0.3 93
2017-12-06 03:00:00 -2.5 0 Calma -- -- 0 959.7 -0.5 93
2017-12-06 02:00:00 -2.2 3 Este 3 Norte 0 959.8 -0.5 92
2017-12-06 01:00:00 -1.7 2 Norte -- -- 0 960 -0.2 90
2017-12-06 00:00:00 -1.1 0 Calma -- -- 0 960.2 -0.1 88
2017-12-05 23:00:00 -0.4 -- -- -- -- 0 960.3 0.4 85
2017-12-05 22:00:00 0.4 2 Este 4 Norte 0 960.2 0.5 82
2017-12-05 21:00:00 1.4 2 Norte 4 Norte 0 960.3 0.9 79
2017-12-05 20:00:00 2.5 2 Nordeste 3 Este 0 959.9 0.5 75
2017-12-05 19:00:00 4.1 3 Este 6 Nordeste 0 959.7 0.3 67
2017-12-05 18:00:00 6.3 4 Nordeste 9 Este 0 959.4 -0.1 57
2017-12-05 17:00:00 8.2 5 Nordeste 10 Nordeste 0 959.4 -0.5 46
2017-12-05 16:00:00 9.1 5 Nordeste 12 Este 0 959.4 -1.2 41
2017-12-05 15:00:00 9.3 6 Este 15 Este 0 959.5 -1.7 41
2017-12-05 14:00:00 8.1 6 Este 12 Este 0 959.9 -1.5 46
2017-12-05 13:00:00 6.5 7 Nordeste 16 Este 0 960.6 -0.5 55
2017-12-05 12:00:00 4.3 9 Este 17 Nordeste 0 961.2 0.4 63
2017-12-05 11:00:00 2.1 13 Este 18 Este 0 961.4 1 70
2017-12-05 10:00:00 -0.9 6 Este 10 Este 0 961.1 0.9 83
2017-12-05 09:00:00 -3 5 Este 9 Este 0 960.8 1 88
2017-12-05 08:00:00 -3.5 6 Este 8 Este 0 960.4 0.6 93
2017-12-05 07:00:00 -3.4 3 Noroeste 7 Noroeste 0 960.2 0.1 91
2017-12-05 06:00:00 -3.1 3 Noroeste 5 Sudeste 0 959.8 -0.1 89
2017-12-05 05:00:00 -2.3 5 Sudeste 9 Sudeste 0 959.8 -0.1 87
2017-12-05 04:00:00 -2 5 Sudeste 8 Sur 0 960.1 -0.3 88
2017-12-05 03:00:00 -1.7 5 Sudeste 8 Sudeste 0 959.9 -0.6 92
2017-12-05 02:00:00 -1.6 6 Nordeste 8 Nordeste 0 959.9 -0.5 93
2017-12-05 01:00:00 -1.2 2 Norte 5 Nordeste 0 960.4 0 89
2017-12-05 00:00:00 -0.5 3 Nordeste 5 Nordeste 0 960.5 0.3 88
2017-12-04 23:00:00 0.1 3 Sudeste 6 Este 0 960.4 0.5 83
2017-12-04 22:00:00 1.1 3 Este 8 Sudeste 0 960.4 1.1 78
2017-12-04 21:00:00 2 5 Este 8 Este 0 960.2 1.5 72
2017-12-04 20:00:00 2.9 5 Nordeste 8 Nordeste 0 959.9 1.5 69
2017-12-04 19:00:00 4.7 4 Este 11 Este 0 959.3 1.1 62
2017-12-04 18:00:00 6.4 8 Este 19 Este 0 958.7 0.3 56
2017-12-04 17:00:00 8 10 Nordeste 26 Nordeste 0 958.4 -0.4 50
2017-12-04 16:00:00 8.7 11 Este 27 Este 0 958.2 -1.3 50
2017-12-04 15:00:00 8.8 13 Nordeste 27 Este 0 958.4 -1.7 51
2017-12-04 14:00:00 8.7 14 Este 26 Nordeste 0 958.8 -1.5 52
2017-12-04 13:00:00 7.8 13 Este 21 Nordeste 0 959.5 0 55
2017-12-04 12:00:00 5.5 10 Este 17 Nordeste 0 960.1 1.3 62
2017-12-04 11:00:00 3.6 5 Nordeste 14 Nordeste 0 960.3 1.9 62
2017-12-04 10:00:00 0.4 5 Este 8 Este 0 959.5 1.6 72
2017-12-04 09:00:00 -2.3 4 Norte 8 Norte 0 958.8 1.3 81
2017-12-04 08:00:00 -3.1 2 Sudeste 3 Este 0 958.4 1.2 81
2017-12-04 07:00:00 -3.2 0 Calma 4 Noroeste 0 957.9 0.5 83
2017-12-04 06:00:00 -3.1 2 Sudeste 5 Este 0 957.5 0.2 82
2017-12-04 05:00:00 -2.7 3 Sudeste 5 Sudeste 0 957.2 0 81
2017-12-04 04:00:00 -2.4 2 Nordeste 4 Nordeste 0 957.4 0.2 80
2017-12-04 03:00:00 -2.4 2 Sudeste 5 Sudoeste 0 957.3 0.2 77
2017-12-04 02:00:00 -1.7 3 Sudoeste 7 Sudoeste 0 957.2 0.4 72
2017-12-04 01:00:00 -1.8 4 Sudeste 6 Sudeste 0 957.2 0.6 74
2017-12-04 00:00:00 -1.3 3 Oeste 7 Oeste 0 957.1 0.9 70
2017-12-03 23:00:00 -1.1 4 Noroeste 6 Oeste 0 956.8 0.8 68
2017-12-03 22:00:00 -0.6 4 Noroeste 5 Noroeste 0 956.6 1.2 67
2017-12-03 21:00:00 0.3 2 Noroeste 4 Noroeste 0 956.2 1.4 60
2017-12-03 20:00:00 1.3 2 Nordeste 5 Norte 0 956 1.7 56
2017-12-03 19:00:00 3.2 4 Norte 9 Nordeste 0 955.4 1.4 46
2017-12-03 18:00:00 5.4 4 Nordeste 10 Norte 0 954.8 0.9 39
2017-12-03 17:00:00 6.8 3 Nordeste 10 Nordeste 0 954.3 0.2 31
2017-12-03 16:00:00 7.8 5 Este 13 Este 0 954 -0.3 28
2017-12-03 15:00:00 8.5 6 Nordeste 15 Nordeste 0 953.9 -0.8 28
2017-12-03 14:00:00 8.4 5 Nordeste 18 Nordeste 0 954.1 -0.6 31
2017-12-03 13:00:00 7.5 8 Nordeste 26 Nordeste 0 954.3 0.3 37
2017-12-03 12:00:00 6.1 9 Nordeste 17 Este 0 954.7 1.3 44
2017-12-03 11:00:00 3.9 4 Norte 11 Norte 0 954.7 1.9 57
2017-12-03 10:00:00 1.5 5 Noroeste 11 Oeste 0 954 1.5 68
2017-12-03 09:00:00 -0.9 6 Noroeste 9 Oeste 0 953.4 1.3 80
2017-12-03 08:00:00 -1.2 5 Oeste 12 Oeste 0 952.8 1 80
2017-12-03 07:00:00 -1.8 4 Oeste 8 Oeste 0 952.5 0.9 82
2017-12-03 06:00:00 -0.9 0 Calma 8 Norte 0 952.1 0.8 77
2017-12-03 05:00:00 0.2 6 Norte 12 Noroeste 0 951.8 0.6 74
2017-12-03 04:00:00 0.4 3 Noroeste 12 Norte 0 951.6 0.3 78
2017-12-03 03:00:00 1 5 Nordeste 15 Noroeste 0 951.3 0.2 74
2017-12-03 02:00:00 2.8 10 Noroeste 18 Noroeste 0 951.2 0.5 67
2017-12-03 01:00:00 2.9 6 Norte 20 Noroeste 0 951.3 0.3 64
2017-12-03 00:00:00 3.2 8 Noroeste 14 Norte 0 951.1 0.4 62
2017-12-02 23:00:00 3.6 8 Noroeste 20 Noroeste 0 950.7 0.5 60
2017-12-02 22:00:00 3.7 5 Noroeste 15 Noroeste 0 951 1.1 59
2017-12-02 21:00:00 3.8 4 Noroeste 13 Noroeste 0 950.7 1.2 60
2017-12-02 20:00:00 4.9 5 Noroeste 28 Noroeste 0 950.2 1 54
2017-12-02 19:00:00 5.3 11 Norte 22 Norte 0 949.9 0.9 53
2017-12-02 18:00:00 6.4 14 Norte 27 Norte 0 949.5 0.2 49
2017-12-02 17:00:00 7.7 11 Norte 25 Noroeste 0 949.2 -0.4 42
2017-12-02 16:00:00 8.3 12 Noroeste 23 Noroeste 0 949 -1.3 40
2017-12-02 15:00:00 8.5 8 Norte 23 Norte 0 949.3 -1.6 40
2017-12-02 14:00:00 9.6 5 Noroeste 18 Noroeste 0 949.6 -1.4 39
2017-12-02 13:00:00 8.7 5 Oeste 13 Oeste 0 950.3 -0.4 44
2017-12-02 12:00:00 7.2 4 Sudoeste 12 Oeste 0 950.9 0.4 47
2017-12-02 11:00:00 4.8 5 Sudoeste 10 Sur 0 951 0.8 56
2017-12-02 10:00:00 2.2 5 Oeste 11 Sudoeste 0 950.7 0.7 65
2017-12-02 09:00:00 -0.6 4 Oeste 11 Sudoeste 0 950.5 0.6 76
2017-12-02 08:00:00 -1.2 4 Sudoeste 9 Sudoeste 0 950.2 0.3 78
2017-12-02 07:00:00 -0.6 4 Noroeste 10 Oeste 0 950 0 76
2017-12-02 06:00:00 -0.2 5 Noroeste 12 Noroeste 0 949.9 0.1 73
2017-12-02 05:00:00 -0.1 3 Noroeste 11 Noroeste 0 949.9 0.3 73
2017-12-02 04:00:00 0.4 6 Noroeste 11 Oeste 0 950 0.1 67
2017-12-02 03:00:00 -0.1 4 Sudoeste 7 Noroeste 0 949.8 0.1 71
2017-12-02 02:00:00 0.9 4 Este 9 Norte 0 949.6 0.2 66
2017-12-02 01:00:00 2.7 5 Norte 23 Norte 0 949.9 1 53
2017-12-02 00:00:00 2.5 6 Norte 21 Noroeste 0 949.7 1.3 56
2017-12-01 23:00:00 2.9 6 Norte 27 Norte 0 949.4 1.8 55
2017-12-01 22:00:00 3.8 11 Norte 26 Norte 0 948.9 2.4 51
2017-12-01 21:00:00 4 0 Calma 21 Nordeste 0 948.4 2.8 68
2017-12-01 20:00:00 4.9 5 Norte 13 Norte 0 947.6 3.8 74
2017-12-01 19:00:00 5.4 4 Norte 18 Norte 0 946.5 3.2 77
2017-12-01 18:00:00 5.1 7 Norte 49 Norte 0.6 945.6 2.1 85
2017-12-01 17:00:00 9.2 11 Oeste 32 Oeste 0 943.8 -0.1 55
2017-12-01 16:00:00 9.4 13 Oeste 35 Oeste 0 943.3 -1.5 52
2017-12-01 15:00:00 10.1 12 Oeste 30 Oeste 0 943.5 -2.1 48
2017-12-01 14:00:00 9.9 14 Oeste 31 Noroeste 0 943.9 -2.2 48
2017-12-01 13:00:00 9.5 10 Oeste 27 Oeste 0 944.8 -1.4 47
2017-12-01 12:00:00 8.3 12 Noroeste 23 Noroeste 0 945.6 -0.5 52
2017-12-01 11:00:00 6.7 6 Oeste 14 Oeste 0 946.1 -0.4 56
2017-12-01 10:00:00 4.7 7 Oeste 15 Oeste 0 946.2 -0.5 63
2017-12-01 09:00:00 1 5 Sudoeste 11 Oeste 0 946.1 -0.7 76
2017-12-01 08:00:00 0.6 5 Sudoeste 10 Sudoeste 0 946.5 -0.6 77
2017-12-01 07:00:00 0.9 3 Oeste 13 Sudoeste 0 946.7 -0.8 75
2017-12-01 06:00:00 1 4 Oeste 13 Oeste 0 946.8 -1 76
2017-12-01 05:00:00 1.4 7 Sudoeste 13 Sudoeste 0 947.1 -0.6 74
2017-12-01 04:00:00 1.1 4 Sudoeste 9 Sudoeste 0 947.5 -0.2 76
2017-12-01 03:00:00 1.2 5 Sudoeste 10 Sudoeste 0 947.8 0.2 76
2017-12-01 02:00:00 1 5 Oeste 8 Noroeste 0 947.7 0.2 76
2017-12-01 01:00:00 1.7 4 Oeste 9 Oeste 0 947.7 0.4 73
2017-12-01 00:00:00 2.8 3 Noroeste 13 Noroeste 0 947.6 1.1 68
2017-11-30 23:00:00 3.5 8 Noroeste 12 Noroeste 0 947.5 1.4 65
2017-11-30 22:00:00 3.5 5 Noroeste 10 Noroeste 0 947.3 2.1 64
2017-11-30 21:00:00 3.9 5 Noroeste 10 Noroeste 0 946.5 1.9 65
2017-11-30 20:00:00 5.3 7 Noroeste 15 Noroeste 0 946.1 2.1 57
2017-11-30 19:00:00 5.8 4 Norte 12 Noroeste 0 945.2 2 60
2017-11-30 18:00:00 6.9 5 Norte 21 Norte 0 944.6 1.5 55
2017-11-30 17:00:00 7.7 10 Norte 30 Norte 0 944 1 52
2017-11-30 16:00:00 8.2 10 Nordeste 30 Nordeste 0 943.2 0.1 50
2017-11-30 15:00:00 8.4 11 Nordeste 32 Nordeste 0 943.1 -0.2 50
2017-11-30 14:00:00 8.1 13 Norte 32 Norte 0 943 0.2 50
2017-11-30 13:00:00 7.6 13 Norte 40 Norte 0 943.1 1 51
2017-11-30 12:00:00 7 12 Nordeste 31 Nordeste 0 943.3 2.1 53
2017-11-30 11:00:00 5.9 12 Nordeste 35 Nordeste 0 942.8 2.7 57
2017-11-30 10:00:00 3.9 13 Nordeste 33 Norte 0 942.1 2.6 65
2017-11-30 09:00:00 2.4 12 Nordeste 31 Nordeste 0 941.2 2 72
2017-11-30 08:00:00 2.3 10 Nordeste 28 Nordeste 0 940.1 1.2 73
2017-11-30 07:00:00 2.4 10 Norte 22 Nordeste 0 939.5 0.7 74
2017-11-30 06:00:00 2.7 9 Nordeste 23 Norte 0 939.2 0.7 75
2017-11-30 05:00:00 3.6 11 Norte 26 Norte 0 938.9 0.6 73
2017-11-30 04:00:00 4.4 3 Norte 22 Este 0 938.8 0.7 73
2017-11-30 03:00:00 4.7 9 Nordeste 17 Nordeste 0 938.5 0.5 75
2017-11-30 02:00:00 5.2 5 Norte 14 Norte 0 938.3 0.6 75
2017-11-30 01:00:00 5.7 7 Norte 15 Norte 0 938.1 0.7 72
2017-11-30 00:00:00 6.3 7 Norte 19 Norte 0 938 1.1 69
2017-11-29 23:00:00 6.6 6 Norte 17 Nordeste 0 937.7 1.4 70
2017-11-29 22:00:00 7.2 6 Norte 17 Nordeste 0 937.4 1.6 67
2017-11-29 21:00:00 7.9 9 Norte 27 Norte 0 936.9 1.7 66
2017-11-29 20:00:00 9.1 5 Norte 11 Norte 0 936.3 1.7 70
2017-11-29 19:00:00 9.5 6 Norte 14 Norte 0 935.8 1.6 70
2017-11-29 18:00:00 9.8 6 Norte 18 Nordeste 0 935.2 1.4 70
2017-11-29 17:00:00 10.2 8 Nordeste 23 Nordeste 0 934.6 0.5 65
2017-11-29 16:00:00 11.2 6 Nordeste 19 Norte 0 934.2 0.1 69
2017-11-29 15:00:00 11.3 7 Norte 22 Norte 0 933.8 -0.9 72
2017-11-29 14:00:00 11.3 9 Norte 23 Nordeste 0 934.1 -1 78
2017-11-29 13:00:00 13.7 3 Sudoeste 9 Este 0 934.1 -0.9 78
2017-11-29 12:00:00 12.9 4 Sudeste 9 Sudoeste 0 934.7 -0.3 86
2017-11-29 11:00:00 12 2 Sur 7 Sudeste 0 935.1 0.6 91
2017-11-29 10:00:00 10.4 5 Sudeste 7 Sudeste 0 935 0.8 98
2017-11-29 09:00:00 9.9 3 Este 7 Sur 0 935 1 97
2017-11-29 08:00:00 10.2 3 Sudeste 9 Nordeste 0.4 934.5 0 95
2017-11-29 07:00:00 10.7 0 Calma 6 Sudeste 0.6 934.2 -1 98
2017-11-29 06:00:00 10.7 4 Sudeste 6 Sudeste 1.8 934 -2.1 98
2017-11-29 05:00:00 10.6 3 Norte 6 Noroeste 2.2 934.5 -2.2 99
2017-11-29 04:00:00 10.7 3 Sudeste 6 Sudeste 1 935.2 -2.6 98
2017-11-29 03:00:00 10.8 3 Este 5 Este 1 936.1 -2.5 98
2017-11-29 02:00:00 10.9 3 Este 5 Nordeste 2.4 936.7 -2.6 97
2017-11-29 01:00:00 10.9 0 Calma 6 Norte 2.2 937.8 -2 98
2017-11-29 00:00:00 11 2 Nordeste 5 Norte 1.2 938.6 -1.6 97
2017-11-28 23:00:00 11.1 2 Sudeste 5 Sudeste 0.6 939.3 -1.8 96
2017-11-28 22:00:00 11.3 2 Sur 10 Sur 1.2 939.8 -1.9 96
2017-11-28 21:00:00 11.4 6 Sudeste 9 Sur 0.6 940.2 -2 96
2017-11-28 20:00:00 11.7 3 Sudeste 7 Sur 0.2 941.1 -1.8 95
2017-11-28 19:00:00 11.7 0 Calma 9 Sur 0.2 941.7 -1.8 95
2017-11-28 18:00:00 11.9 2 Sur 9 Sudoeste 0.8 942.2 -1.8 96
2017-11-28 17:00:00 11.9 5 Sudoeste 10 Sudoeste 0.6 942.9 -2.1 94
2017-11-28 16:00:00 12 7 Sudoeste 13 Sudoeste 1 943.5 -2.6 95
2017-11-28 15:00:00 12 6 Sudoeste 14 Sudoeste 1 944 -2.8 94
2017-11-28 14:00:00 11.7 6 Sudoeste 14 Sudoeste 2 945 -2.4 94
2017-11-28 13:00:00 11.6 7 Sudoeste 13 Sudoeste 1 946.1 -1.7 92
2017-11-28 12:00:00 11.4 5 Sudoeste 11 Oeste 0.2 946.8 -1.1 89
2017-11-28 11:00:00 10.6 3 Sudoeste 8 Sudoeste 0.4 947.4 -0.3 90
2017-11-28 10:00:00 10 3 Noroeste 10 Oeste 0.4 947.8 0.2 90
2017-11-28 09:00:00 9.2 3 Oeste 7 Oeste 0 947.9 0 86
2017-11-28 08:00:00 8.6 0 Calma 5 Noroeste 0 947.7 -0.4 72
2017-11-28 07:00:00 9.8 3 Oeste 9 Oeste 0 947.6 -1.3 76
2017-11-28 06:00:00 9.2 3 Oeste 9 Oeste 0 947.9 -1.7 73
2017-11-28 05:00:00 7.9 2 Noroeste 5 Sudoeste 0 948.1 -2.1 64
2017-11-28 04:00:00 7.7 0 Calma 3 Sudeste 0 948.9 -1.9 61
2017-11-28 03:00:00 7.8 0 Calma 3 Este 0 949.6 -1.6 60
2017-11-28 02:00:00 7.8 0 Calma 5 Noroeste 0 950.2 -1.1 57
2017-11-28 01:00:00 7.7 3 Noroeste 6 Oeste 0 950.8 -0.8 54
2017-11-28 00:00:00 6.8 3 Noroeste 5 Noroeste 0 951.2 -0.6 61
2017-11-27 23:00:00 6.7 2 Noroeste 4 Noroeste 0 951.3 -0.6 60
2017-11-27 22:00:00 7.1 2 Este 3 Este 0 951.6 -0.4 58
2017-11-27 21:00:00 7.5 3 Sudeste 3 Este 0 951.8 -0.2 58
2017-11-27 20:00:00 7.6 2 Nordeste 3 Norte 0 951.9 -0.2 57
2017-11-27 19:00:00 9.1 2 Este 4 Este 0 952 -0.3 52
2017-11-27 18:00:00 11.1 3 Este 6 Nordeste 0 952 -0.7 45
2017-11-27 17:00:00 12.2 3 Nordeste 6 Nordeste 0 952.1 -1.3 42
2017-11-27 16:00:00 12.6 3 Este 7 Este 0 952.3 -2.1 39
2017-11-27 15:00:00 12.3 0 Calma 8 Este 0 952.7 -2.6 38
2017-11-27 14:00:00 11.7 5 Sudeste 11 Este 0 953.4 -2.5 38
2017-11-27 13:00:00 9.5 6 Este 13 Nordeste 0 954.4 -1.2 43
2017-11-27 12:00:00 6.5 5 Este 13 Nordeste 0 955.3 0 51
2017-11-27 11:00:00 3.6 5 Este 12 Nordeste 0 955.9 0.9 59
2017-11-27 10:00:00 2.4 6 Nordeste 12 Nordeste 0 955.6 1 62
2017-11-27 09:00:00 0.7 4 Nordeste 7 Norte 0 955.3 0.7 68
2017-11-27 08:00:00 0.6 4 Sudeste 9 Este 0 955 0.2 68
2017-11-27 07:00:00 0.6 4 Nordeste 8 Este 0 954.6 -0.6 70
2017-11-27 06:00:00 -0.4 3 Sudeste 5 Norte 0 954.6 -0.4 73
2017-11-27 05:00:00 -0.4 2 Noroeste 5 Norte 0 954.8 -0.2 73
2017-11-27 04:00:00 0.2 0 Calma 3 Nordeste 0 955.2 0 69
2017-11-27 03:00:00 0.8 0 Calma 7 Nordeste 0 955 -0.1 66
2017-11-27 02:00:00 1.6 3 Nordeste 6 Nordeste 0 955 -0.3 63
2017-11-27 01:00:00 1.9 2 Este 9 Nordeste 0 955.2 -0.2 60
2017-11-27 00:00:00 2.5 5 Nordeste 10 Nordeste 0 955.1 0.2 58
2017-11-26 23:00:00 3 3 Nordeste 6 Nordeste 0 955.3 -0.1 57
2017-11-26 22:00:00 3.9 2 Nordeste 8 Nordeste 0 955.4 0.5 54
2017-11-26 21:00:00 5 5 Nordeste 10 Nordeste 0 954.9 -0.1 50
2017-11-26 20:00:00 6.3 3 Sudeste 8 Nordeste 0 955.4 0.9 46
2017-11-26 19:00:00 8 5 Nordeste 7 Nordeste 0 954.9 0.4 43
2017-11-26 18:00:00 10.5 5 Este 8 Este 0 955 0.3 35
2017-11-26 17:00:00 12 3 Este 11 Este 0 954.5 -0.7 30
2017-11-26 16:00:00 12.6 4 Nordeste 15 Nordeste 0 954.5 -1.1 29
2017-11-26 15:00:00 13.3 8 Nordeste 14 Nordeste 0 954.7 -1.5 29
2017-11-26 14:00:00 13.6 5 Nordeste 15 Nordeste 0 955.2 -1.1 31
2017-11-26 13:00:00 12.2 7 Este 14 Este 0 955.6 -0.1 35
2017-11-26 12:00:00 10.5 6 Este 17 Este 0 956.2 1.2 42
2017-11-26 11:00:00 8 8 Este 15 Este 0 956.3 2.2 52
2017-11-26 10:00:00 6.4 11 Este 17 Este 0 955.7 2.2 61
2017-11-26 09:00:00 4.3 4 Este 8 Nordeste 0 955 2 73
2017-11-26 08:00:00 4.2 3 Nordeste 9 Norte 0 954.1 1.6 76
2017-11-26 07:00:00 4.9 5 Nordeste 10 Nordeste 0 953.5 1.2 77
2017-11-26 06:00:00 5.6 5 Nordeste 9 Nordeste 0 953 0.7 79
2017-11-26 05:00:00 6.5 3 Norte 8 Nordeste 0 952.5 1.2 81
2017-11-26 04:00:00 7.6 5 Nordeste 8 Nordeste 0 952.3 1.3 78
2017-11-26 03:00:00 7.3 3 Este 11 Nordeste 0 952.3 1.6 80
2017-11-26 02:00:00 7.1 5 Nordeste 10 Nordeste 0 951.3 0.9 79
2017-11-26 01:00:00 7.7 0 Calma 6 Noroeste 0 951 0.7 71
2017-11-26 00:00:00 9.2 4 Noroeste 6 Oeste 0 950.7 0.7 66
2017-11-25 23:00:00 10.9 0 Calma 7 Oeste 0 950.4 0.8 59
2017-11-25 22:00:00 12.1 3 Oeste 9 Sudoeste 0 950.3 1.2 56
2017-11-25 21:00:00 12.5 4 Noroeste 8 Noroeste 0 950 1.5 54
2017-11-25 20:00:00 13.1 4 Noroeste 8 Oeste 0 949.6 1.4 51
2017-11-25 19:00:00 13.6 5 Oeste 11 Oeste 0 949.1 1.3 49
2017-11-25 18:00:00 14.4 4 Oeste 13 Sudoeste 0 948.5 0.9 45
2017-11-25 17:00:00 15.5 5 Oeste 14 Noroeste 0 948.2 0.3 42
2017-11-25 16:00:00 15.7 8 Oeste 18 Noroeste 0 947.8 -0.4 40
2017-11-25 15:00:00 15.5 7 Oeste 15 Oeste 0 947.6 -1.1 40
2017-11-25 14:00:00 14.7 4 Sudoeste 8 Sudoeste 0 947.9 -1 44
2017-11-25 13:00:00 13.7 3 Sur 8 Sudoeste 0 948.2 0.5 46
2017-11-25 12:00:00 12.2 3 Sur 8 Sudoeste 0 948.7 1.1 50
2017-11-25 11:00:00 10.6 4 Norte 13 Noroeste 0 948.9 1 54
2017-11-25 10:00:00 10.1 3 Este 12 Sur 0 947.7 0 56
2017-11-25 09:00:00 8.7 5 Sudoeste 9 Sur 0 947.6 0.1 57
2017-11-25 08:00:00 7.8 0 Calma 4 Sur 0 947.9 0.4 63
2017-11-25 07:00:00 7.5 2 Sur 3 Sur 0 947.7 -0.2 64
2017-11-25 06:00:00 7.3 2 Nordeste 4 Norte 0 947.5 -0.5 63
2017-11-25 05:00:00 7.9 0 Calma 5 Norte 0 947.5 -0.6 61
2017-11-25 04:00:00 8.2 3 Sudoeste 6 Sur 0 947.9 -0.2 64
2017-11-25 03:00:00 8.4 0 Calma 4 Sudoeste 0 948 -0.1 62
2017-11-25 02:00:00 9.1 3 Noroeste 5 Sudoeste 0 948.1 -0.2 59
2017-11-25 01:00:00 10 2 Sudoeste 5 Oeste 0 948.1 0.1 54
2017-11-25 00:00:00 10.6 4 Noroeste 5 Noroeste 0 948.1 0 52
2017-11-24 23:00:00 11.8 2 Oeste 6 Sudoeste 0 948.3 0.5 47
2017-11-24 22:00:00 13.5 4 Noroeste 12 Sudoeste 0 948 0.7 40
2017-11-24 21:00:00 13.8 7 Sudoeste 12 Sudoeste 0 948.1 0.9 39
2017-11-24 20:00:00 15 5 Sudoeste 13 Sudoeste 0 947.8 0.6 35
2017-11-24 19:00:00 16.1 5 Sur 13 Sudoeste 0 947.3 0.4 33
2017-11-24 18:00:00 17.6 5 Sudoeste 13 Sudoeste 0 947.2 -0.3 29
2017-11-24 17:00:00 19.4 5 Oeste 18 Sudoeste 0 947.2 -0.7 25
2017-11-24 16:00:00 19.9 6 Oeste 23 Oeste 0 946.9 -1.5 26
2017-11-24 15:00:00 20.5 11 Sudoeste 30 Sudoeste 0 947.5 -1.8 23
2017-11-24 14:00:00 20.7 8 Sudoeste 26 Sudoeste 0 947.9 -1.5 23
2017-11-24 13:00:00 18.2 3 Norte 8 Noroeste 0 948.4 -0.8 32
2017-11-24 12:00:00 15.9 3 Nordeste 8 Norte 0 949.3 0.4 36
2017-11-24 11:00:00 14.2 4 Este 7 Nordeste 0 949.4 1 40
2017-11-24 10:00:00 10.3 3 Nordeste 5 Nordeste 0 949.2 1.2 55
2017-11-24 09:00:00 6.5 3 Sur 6 Norte 0 948.9 0.9 65
2017-11-24 08:00:00 6.1 2 Sur 6 Sur 0 948.4 0.6 62
2017-11-24 07:00:00 6.7 3 Sudeste 9 Sudoeste 0 948 0 61
2017-11-24 06:00:00 7.8 4 Sudoeste 8 Sudoeste 0 948 -0.1 59
2017-11-24 05:00:00 8.7 0 Calma 5 Norte 0 947.8 -0.3 55
2017-11-24 04:00:00 10.1 0 Calma 5 Norte 0 948 -0.5 51
2017-11-24 03:00:00 11.6 3 Sudoeste 13 Sur 0 948.1 -0.7 43
2017-11-24 02:00:00 11.1 7 Sur 11 Sur 0 948.1 -0.5 43
2017-11-24 01:00:00 11.3 4 Sur 6 Sur 0 948.5 0.2 47
2017-11-24 00:00:00 11.5 0 Calma 5 Sur 0 948.8 0.6 48
2017-11-23 23:00:00 12 2 Sudoeste 4 Sudoeste 0 948.6 0.6 44
2017-11-23 22:00:00 13.2 3 Sudeste 9 Sur 0 948.3 0.9 39
2017-11-23 21:00:00 13.8 4 Sur 11 Sur 0 948.2 1.3 37
2017-11-23 20:00:00 14.3 6 Sur 12 Sur 0 948 1.2 35
2017-11-23 19:00:00 14.6 5 Sur 9 Sur 0 947.4 0.6 37
2017-11-23 18:00:00 17.1 4 Sur 6 Sudoeste 0 946.9 0.4 32
2017-11-23 17:00:00 19.1 3 Sudoeste 15 Sudoeste 0 946.8 -0.3 25
2017-11-23 16:00:00 20.2 9 Sudoeste 26 Oeste 0 946.8 -0.7 22
2017-11-23 15:00:00 21.3 8 Sudoeste 17 Sudoeste 0 946.5 -1.4 23
2017-11-23 14:00:00 20.8 5 Sur 15 Sur 0 947.1 -0.7 25
2017-11-23 13:00:00 18.4 3 Sur 10 Sudoeste 0 947.5 0.2 29
2017-11-23 12:00:00 14.9 2 Este 4 Este 0 947.9 1.3 38
2017-11-23 11:00:00 10.9 0 Calma 4 Nordeste 0 947.8 2.1 48
2017-11-23 10:00:00 8.6 0 Calma 8 Este 0 947.3 2.2 54
2017-11-23 09:00:00 7.1 0 Calma 6 Nordeste 0 946.6 1.6 58
2017-11-23 08:00:00 7.4 3 Este 9 Sur 0 945.7 1.3 53
2017-11-23 07:00:00 7.4 5 Sur 9 Sur 0 945.1 0.9 56
2017-11-23 06:00:00 6.7 3 Sudeste 5 Noroeste 0 945 1 61
2017-11-23 05:00:00 7 2 Sudeste 4 Oeste 0 944.4 0.4 62
2017-11-23 04:00:00 7 3 Sudoeste 4 Sudoeste 0 944.2 0 60
2017-11-23 03:00:00 6.7 3 Sudoeste 6 Sudoeste 0 944 -0.2 61
2017-11-23 02:00:00 6.7 4 Sudoeste 7 Sudoeste 0 944 0.1 61
2017-11-23 01:00:00 6.8 3 Sudoeste 6 Sudoeste 0 944.2 0.6 59
2017-11-23 00:00:00 7.4 4 Sudoeste 7 Sudoeste 0 944.2 0.9 54
2017-11-22 23:00:00 8.7 0 Calma 7 Sur 0 943.9 0.8 49
2017-11-22 22:00:00 11.1 5 Sur 15 Sudoeste 0 943.6 0.7 40
2017-11-22 21:00:00 10.2 5 Sudoeste 12 Sudoeste 0 943.3 0.7 46
2017-11-22 20:00:00 10.8 5 Sudoeste 8 Oeste 0 943.1 0.7 48
2017-11-22 19:00:00 12.6 0 Calma 4 Nordeste 0 942.9 0.3 43
2017-11-22 18:00:00 15.5 0 Calma 6 Sur 0 942.6 -0.5 36
2017-11-22 17:00:00 17.7 4 Sudeste 10 Sudeste 0 942.4 -1.3 28
2017-11-22 16:00:00 18.7 4 Sudoeste 9 Sur 0 942.6 -2 23
2017-11-22 15:00:00 19.5 4 Sudoeste 11 Sur 0 943.1 -2.3 25
2017-11-22 14:00:00 18.7 3 Sudeste 7 Sudeste 0 943.7 -2.1 28
2017-11-22 13:00:00 16.7 3 Sur 7 Sudeste 0 944.6 -1 32
2017-11-22 12:00:00 12.3 2 Oeste 5 Noroeste 0 945.4 0.1 41
2017-11-22 11:00:00 7.8 3 Noroeste 8 Nordeste 0 945.8 0.8 55
2017-11-22 10:00:00 4.7 4 Nordeste 9 Nordeste 0 945.6 0.5 64
2017-11-22 09:00:00 1.4 2 Norte 5 Norte 0 945.3 0 77
2017-11-22 08:00:00 0.8 0 Calma 5 Sudeste 0 945 -0.6 80
2017-11-22 07:00:00 1.1 2 Norte 4 Nordeste 0 945.1 -0.8 80
2017-11-22 06:00:00 1.7 2 Nordeste 5 Noroeste 0 945.3 -0.9 78
2017-11-22 05:00:00 2.5 2 Noroeste 10 Noroeste 0 945.6 -0.8 75
2017-11-22 04:00:00 2.5 3 Norte 5 Noroeste 0 945.9 -1.1 74
2017-11-22 03:00:00 3.1 0 Calma 4 Sudeste 0 946.2 -1.1 70
2017-11-22 02:00:00 3.9 0 Calma 7 Sudeste 0 946.4 -1.1 70
2017-11-22 01:00:00 4.6 5 Sudeste 6 Sudeste 0 947 -0.5 67
2017-11-22 00:00:00 5.7 2 Noroeste 7 Norte 0 947.3 -0.3 63
2017-11-21 23:00:00 6.5 4 Norte 7 Nordeste 0 947.5 0 60
2017-11-21 22:00:00 7.2 3 Nordeste 7 Nordeste 0 947.5 0 58
2017-11-21 21:00:00 8.7 2 Norte 6 Norte 0 947.6 0.3 54
2017-11-21 20:00:00 10 4 Sudeste 5 Este 0 947.5 0.1 51
2017-11-21 19:00:00 12 4 Nordeste 7 Nordeste 0 947.5 -0.1 46
2017-11-21 18:00:00 14.7 0 Calma 4 Nordeste 0 947.3 -0.7 39
2017-11-21 17:00:00 17.5 3 Norte 8 Sudoeste 0 947.4 -1.3 32
2017-11-21 16:00:00 18.8 3 Noroeste 7 Noroeste 0 947.6 -2 25
2017-11-21 15:00:00 19 3 Sudoeste 6 Noroeste 0 948 -2.5 28
2017-11-21 14:00:00 17.5 3 Oeste 5 Oeste 0 948.7 -2 31
2017-11-21 13:00:00 16.1 3 Sudoeste 5 Noroeste 0 949.6 -1.2 33
2017-11-21 12:00:00 12.1 2 Sudeste 10 Este 0 950.5 -0.1 42
2017-11-21 11:00:00 8.4 4 Nordeste 7 Este 0 950.7 0.4 54
2017-11-21 10:00:00 4.4 3 Este 9 Nordeste 0 950.8 0.7 67
2017-11-21 09:00:00 1.4 3 Norte 6 Nordeste 0 950.6 0.5 83
2017-11-21 08:00:00 0.9 2 Nordeste 3 Este 0 950.3 0.4 84
2017-11-21 07:00:00 1.1 0 Calma 4 Nordeste 0 950.1 -0.1 82
2017-11-21 06:00:00 1.4 0 Calma 4 Norte 0 950.1 -0.3 79
2017-11-21 05:00:00 2.2 0 Calma 5 Sudeste 0 949.9 -0.4 79
2017-11-21 04:00:00 2.6 4 Sudeste 5 Sudeste 0 950.2 -0.3 77
2017-11-21 03:00:00 3.3 3 Este 4 Sur 0 950.4 -0.2 74
2017-11-21 02:00:00 4 0 Calma 4 Sudeste 0 950.3 -0.2 73
2017-11-21 01:00:00 4.7 0 Calma 5 Norte 0 950.5 0.1 69
2017-11-21 00:00:00 5.5 3 Norte 6 Nordeste 0 950.6 0.2 65
2017-11-20 23:00:00 6.2 4 Este 8 Nordeste 0 950.5 0.4 63
2017-11-20 22:00:00 7 4 Este 5 Este 0 950.4 0.7 62
2017-11-20 21:00:00 8.5 3 Norte 7 Sur 0 950.4 1.1 58
2017-11-20 20:00:00 10 2 Sur 3 Sur 0 950.1 0.6 56
2017-11-20 19:00:00 12.1 0 Calma -- -- 0 949.7 0.1 49
2017-11-20 18:00:00 14.5 3 Nordeste 6 Noroeste 0 949.3 -0.7 42
2017-11-20 17:00:00 17.1 3 Noroeste 9 Oeste 0 949.5 -1.1 33
2017-11-20 16:00:00 18.1 2 Norte 8 Noroeste 0 949.6 -1.8 28
2017-11-20 15:00:00 18.4 3 Oeste 6 Sudoeste 0 950 -2 27
2017-11-20 14:00:00 17.4 4 Oeste 8 Oeste 0 950.6 -1.6 33
2017-11-20 13:00:00 15.4 3 Sudeste 6 Sudeste 0 951.4 -0.5 42
2017-11-20 12:00:00 11.7 2 Oeste 5 Noroeste 0 952 0.6 51
2017-11-20 11:00:00 7.2 0 Calma 8 Nordeste 0 952.2 1.2 66
2017-11-20 10:00:00 3.5 3 Norte 8 Norte 0 951.9 1.2 75
2017-11-20 09:00:00 1.1 3 Norte 7 Nordeste 0 951.4 1.1 86
2017-11-20 08:00:00 0.8 0 Calma 6 Nordeste 0 951 1.1 90
2017-11-20 07:00:00 0.9 2 Este 4 Este 0 950.7 0.5 91
2017-11-20 06:00:00 0.9 2 Este 3 Este 0 950.3 0.1 84
2017-11-20 05:00:00 1.7 0 Calma 3 Sudeste 0 949.9 -0.3 87
2017-11-20 04:00:00 1.9 2 Norte 4 Nordeste 0 950.2 -0.3 84
2017-11-20 03:00:00 2.5 0 Calma -- -- 0 950.2 -0.3 81
2017-11-20 02:00:00 3.2 0 Calma 3 Este 0 950.2 -0.1 77
2017-11-20 01:00:00 4.1 0 Calma 4 Norte 0 950.5 0.6 77
2017-11-20 00:00:00 4.9 3 Nordeste 5 Nordeste 0 950.5 0.8 72
2017-11-19 23:00:00 6 0 Calma 8 Nordeste 0 950.3 1 70
2017-11-19 22:00:00 6.6 4 Nordeste 8 Nordeste 0 949.9 1.1 69
2017-11-19 21:00:00 7.6 3 Sudeste 4 Sudeste 0 949.7 1.3 66
2017-11-19 20:00:00 9.1 2 Nordeste 3 Nordeste 0 949.3 1.2 60
2017-11-19 19:00:00 11 0 Calma 4 Este 0 948.8 0.9 54
2017-11-19 18:00:00 13.6 3 Nordeste 4 Nordeste 0 948.4 0.3 47
2017-11-19 17:00:00 16.1 0 Calma 6 Este 0 948.1 -0.6 38
2017-11-19 16:00:00 17.1 2 Sudeste 9 Este 0 947.9 -1.5 34
2017-11-19 15:00:00 17.2 4 Nordeste 10 Este 0 948.1 -1.9 37
2017-11-19 14:00:00 16.8 3 Sudeste 8 Este 0 948.7 -1.3 39
2017-11-19 13:00:00 14.1 4 Este 13 Nordeste 0 949.4 -0.4 48
2017-11-19 12:00:00 11.1 5 Este 13 Nordeste 0 950 0.6 59
2017-11-19 11:00:00 8.2 6 Este 12 Este 0 950 1.1 68
2017-11-19 10:00:00 4.7 5 Este 9 Este 0 949.8 1.5 78
2017-11-19 09:00:00 1.5 2 Este 4 Nordeste 0 949.4 1.4 83
2017-11-19 08:00:00 1.1 3 Nordeste 4 Este 0 948.9 1.2 82
2017-11-19 07:00:00 1.6 2 Nordeste 5 Nordeste 0 948.3 0.6 79
2017-11-19 06:00:00 2.6 2 Nordeste 9 Nordeste 0 948 0.2 76
2017-11-19 05:00:00 3.3 4 Norte 7 Nordeste 0 947.7 0.1 76
2017-11-19 04:00:00 3.3 0 Calma 3 Nordeste 0 947.7 -0.1 77
2017-11-19 03:00:00 4.1 0 Calma 7 Norte 0 947.8 0.1 75
2017-11-19 02:00:00 4.5 2 Nordeste 9 Nordeste 0 947.6 0 74
2017-11-19 01:00:00 5 4 Norte 6 Nordeste 0 947.8 0.3 72
2017-11-19 00:00:00 5.8 0 Calma 5 Este 0 947.7 0.6 67
2017-11-18 23:00:00 6.7 3 Sudeste 6 Este 0 947.6 0.7 65
2017-11-18 22:00:00 7.6 0 Calma 5 Norte 0 947.5 1 62
2017-11-18 21:00:00 8.5 2 Norte 4 Norte 0 947.1 0.9 59
2017-11-18 20:00:00 9.9 3 Nordeste 4 Nordeste 0 946.9 0.9 53
2017-11-18 19:00:00 11.8 3 Nordeste 5 Nordeste 0 946.5 0.6 46
2017-11-18 18:00:00 14.6 4 Nordeste 10 Nordeste 0 946.2 0.1 39
2017-11-18 17:00:00 16.7 3 Nordeste 9 Este 0 946 -0.7 31
2017-11-18 16:00:00 17.5 3 Nordeste 9 Sudeste 0 945.9 -1.3 29
2017-11-18 15:00:00 17.6 4 Nordeste 8 Nordeste 0 946.1 -1.8 29
2017-11-18 14:00:00 17.2 3 Norte 8 Norte 0 946.7 -1.5 31
2017-11-18 13:00:00 15.4 3 Este 6 Este 0 947.2 -1 37
2017-11-18 12:00:00 12.7 2 Sudeste 5 Nordeste 0 947.9 -0.1 43
2017-11-18 11:00:00 8.6 2 Este 4 Noroeste 0 948.2 0.9 56
2017-11-18 10:00:00 5.1 0 Calma 7 Norte 0 948.2 1 68
2017-11-18 09:00:00 2.4 0 Calma 4 Norte 0 948 1 80
2017-11-18 08:00:00 2.2 2 Sudeste 4 Sudeste 0 947.3 0.5 81
2017-11-18 07:00:00 2.6 0 Calma 5 Norte 0 947.2 0.1 80
2017-11-18 06:00:00 3.8 5 Noroeste 9 Noroeste 0 947 -0.1 75
2017-11-18 05:00:00 2.9 3 Noroeste 4 Noroeste 0 946.8 -0.4 79
2017-11-18 04:00:00 3.5 0 Calma 3 Sudeste 0 947.1 -0.5 77
2017-11-18 03:00:00 4.1 0 Calma 4 Noroeste 0 947.1 -0.5 73
2017-11-18 02:00:00 5.1 0 Calma 4 Oeste 0 947.2 -0.5 72
2017-11-18 01:00:00 5.5 0 Calma 4 Este 0 947.6 0.3 68
2017-11-18 00:00:00 6.3 3 Nordeste 5 Sudeste 0 947.6 0.7 63
2017-11-17 23:00:00 7.2 3 Noroeste 6 Noroeste 0 947.7 0.9 62
2017-11-17 22:00:00 8 3 Norte 5 Norte 0 947.3 0.6 59
2017-11-17 21:00:00 9.4 2 Noroeste 4 Sudeste 0 946.9 0.6 54
2017-11-17 20:00:00 10.9 4 Sudeste 6 Sudeste 0 946.8 0.7 48
2017-11-17 19:00:00 12.8 4 Sudeste 8 Este 0 946.7 0.5 42
2017-11-17 18:00:00 15.5 3 Este 9 Este 0 946.3 -0.4 35
2017-11-17 17:00:00 17.3 5 Este 9 Este 0 946.1 -1.3 30
2017-11-17 16:00:00 18.1 3 Sur 10 Este 0 946.2 -1.9 27
2017-11-17 15:00:00 18.9 4 Este 10 Este 0 946.7 -2.1 26
2017-11-17 14:00:00 17.7 4 Este 7 Este 0 947.4 -1.6 29
2017-11-17 13:00:00 15.8 2 Este 9 Nordeste 0 948.1 -0.8 35
2017-11-17 12:00:00 11.9 3 Nordeste 8 Nordeste 0 948.8 0.2 42
2017-11-17 11:00:00 8.9 4 Nordeste 9 Nordeste 0 949 0.9 50
2017-11-17 10:00:00 5.9 2 Nordeste 6 Nordeste 0 948.9 1.1 62
2017-11-17 09:00:00 2.2 2 Este 4 Este 0 948.6 0.9 77
2017-11-17 08:00:00 1.4 3 Sudeste 4 Este 0 948.1 0.5 77
2017-11-17 07:00:00 1.7 0 Calma 5 Sudeste 0 947.8 0 74
2017-11-17 06:00:00 1.9 4 Sudeste 5 Sudeste 0 947.7 -0.4 76
2017-11-17 05:00:00 2.4 0 Calma 4 Sudoeste 0 947.6 -0.3 78
2017-11-17 04:00:00 2.8 3 Sur 3 Sudeste 0 947.8 -0.4 75
2017-11-17 03:00:00 3.4 2 Norte 3 Noroeste 0 948.1 -0.1 76
2017-11-17 02:00:00 3.9 0 Calma 3 Este 0 947.9 -0.1 72
2017-11-17 01:00:00 4.5 2 Sudeste 4 Sudeste 0 948.2 0.5 69
2017-11-17 00:00:00 5.4 0 Calma 3 Norte 0 948.2 0.7 66
2017-11-16 23:00:00 6.3 3 Norte 4 Sudeste 0 948 0.8 63
2017-11-16 22:00:00 7.2 3 Este -- -- 0 947.7 0.9 59
2017-11-16 21:00:00 8.3 0 Calma 3 Norte 0 947.5 1.1 55
2017-11-16 20:00:00 9.9 2 Norte 5 Sudoeste 0 947.2 0.9 51
2017-11-16 19:00:00 11.8 0 Calma 7 Sur 0 946.8 0.4 44
2017-11-16 18:00:00 14.3 3 Sudeste 6 Este 0 946.4 -0.3 38
2017-11-16 17:00:00 16.6 2 Sur 8 Este 0 946.3 -0.8 31
2017-11-16 16:00:00 17.8 3 Sudoeste 6 Sur 0 946.4 -1.4 27
2017-11-16 15:00:00 18.6 4 Sudeste 8 Nordeste 0 946.7 -1.8 26
2017-11-16 14:00:00 18 3 Oeste 8 Sudoeste 0 947.1 -1.6 27
2017-11-16 13:00:00 15.6 2 Sudeste 6 Sur 0 947.8 -0.6 30
2017-11-16 12:00:00 12.3 3 Este 7 Este 0 948.5 0.5 39
2017-11-16 11:00:00 8.4 2 Noroeste 5 Norte 0 948.7 1.4 51
2017-11-16 10:00:00 4.4 3 Noroeste 8 Nordeste 0 948.4 1.5 66
2017-11-16 09:00:00 1.3 2 Este 3 Este 0 948 1.3 73
2017-11-16 08:00:00 0.4 0 Calma 3 Este 0 947.3 1 73
2017-11-16 07:00:00 0.5 2 Este 3 Sudeste 0 946.9 0.5 73
2017-11-16 06:00:00 1 0 Calma 4 Sudeste 0 946.7 0 71
2017-11-16 05:00:00 1.5 2 Sudeste 3 Sur 0 946.3 -0.4 70
2017-11-16 04:00:00 2.1 0 Calma 4 Oeste 0 946.4 -0.7 72
2017-11-16 03:00:00 2.6 3 Noroeste 5 Norte 0 946.7 -0.1 66
2017-11-16 02:00:00 3.1 2 Sur 4 Este 0 946.7 -0.2 63
2017-11-16 01:00:00 4 3 Este 5 Sudeste 0 947.1 0.5 61
2017-11-16 00:00:00 4.4 4 Sudeste 5 Sudeste 0 946.8 0.2 56
2017-11-15 23:00:00 5.1 0 Calma 4 Norte 0 946.9 0.6 53
2017-11-15 22:00:00 6.2 2 Noroeste 4 Sudeste 0 946.6 0.5 55
2017-11-15 21:00:00 7.5 0 Calma 4 Norte 0 946.6 0.9 48
2017-11-15 20:00:00 9.1 2 Sudoeste 5 Sudoeste 0 946.3 0.3 43
2017-11-15 19:00:00 10.9 3 Sudoeste 6 Sudoeste 0 946.1 0 37
2017-11-15 18:00:00 13.5 4 Sudoeste 10 Sudoeste 0 945.7 -0.5 27
2017-11-15 17:00:00 15.1 4 Sudoeste 7 Oeste 0 946 -0.7 23
2017-11-15 16:00:00 15.6 3 Sur 7 Sudoeste 0 946.1 -1.3 21
2017-11-15 15:00:00 16 4 Sudoeste 12 Oeste 0 946.2 -2 22
2017-11-15 14:00:00 15.2 5 Oeste 15 Oeste 0 946.7 -2.1 23
2017-11-15 13:00:00 13.8 4 Sur 8 Oeste 0 947.4 -1.3 28
2017-11-15 12:00:00 10.6 2 Sudeste 6 Sur 0 948.2 -0.2 34
2017-11-15 11:00:00 6.8 2 Este 9 Este 0 948.8 0.8 42
2017-11-15 10:00:00 3.4 5 Este 9 Este 0 948.7 1.5 51
2017-11-15 09:00:00 0.5 0 Calma 4 Nordeste 0 948.4 1.3 61
2017-11-15 08:00:00 0.1 2 Nordeste 9 Noroeste 0 948 1.3 67
2017-11-15 07:00:00 -0.2 2 Norte 4 Nordeste 0 947.2 0.2 70
2017-11-15 06:00:00 0 2 Este 4 Oeste 0 947.1 0.1 70
2017-11-15 05:00:00 1 2 Noroeste 5 Noroeste 0 946.7 -0.3 66
2017-11-15 04:00:00 1.2 2 Este 7 Nordeste 0 947 0 65
2017-11-15 03:00:00 1.8 3 Nordeste 5 Nordeste 0 947 0 64
2017-11-15 02:00:00 2.5 3 Noroeste 4 Noroeste 0 947 0.3 63
2017-11-15 01:00:00 2.9 2 Este 4 Nordeste 0 947 0.4 59
2017-11-15 00:00:00 3.6 5 Nordeste 8 Nordeste 0 947 0.9 55